sensor_id;sensor_type;location;lat;lon;timestamp;P1;P2;P0
73749;PMS7003;62058;48.406;-4.514;2023-05-29T00:01:20;0.00;0.00;0.00
73749;PMS7003;62058;48.406;-4.514;2023-05-29T00:03:49;0.00;0.00;0.00
73749;PMS7003;62058;48.406;-4.514;2023-05-29T00:06:14;0.00;0.00;0.00
73749;PMS7003;62058;48.406;-4.514;2023-05-29T00:08:40;0.00;0.00;0.00
73749;PMS7003;62058;48.406;-4.514;2023-05-29T00:11:05;0.00;0.00;0.00
73749;PMS7003;62058;48.406;-4.514;2023-05-29T00:13:31;0.00;0.00;0.00
73749;PMS7003;62058;48.406;-4.514;2023-05-29T00:15:56;0.00;0.00;0.00
73749;PMS7003;62058;48.406;-4.514;2023-05-29T00:18:21;0.00;0.00;0.00
73749;PMS7003;62058;48.406;-4.514;2023-05-29T00:20:47;0.00;0.00;0.00
73749;PMS7003;62058;48.406;-4.514;2023-05-29T00:23:12;0.00;0.00;0.00
73749;PMS7003;62058;48.406;-4.514;2023-05-29T00:25:38;0.00;0.00;0.00
73749;PMS7003;62058;48.406;-4.514;2023-05-29T00:28:05;0.00;0.00;0.00
73749;PMS7003;62058;48.406;-4.514;2023-05-29T00:30:32;0.00;0.00;0.00
73749;PMS7003;62058;48.406;-4.514;2023-05-29T00:32:57;0.00;0.00;0.00
73749;PMS7003;62058;48.406;-4.514;2023-05-29T00:35:22;0.00;0.00;0.00
73749;PMS7003;62058;48.406;-4.514;2023-05-29T00:37:48;0.00;0.00;0.00
73749;PMS7003;62058;48.406;-4.514;2023-05-29T00:40:13;0.00;0.00;0.00
73749;PMS7003;62058;48.406;-4.514;2023-05-29T00:42:39;0.00;0.00;0.00
73749;PMS7003;62058;48.406;-4.514;2023-05-29T00:45:04;0.00;0.00;0.00
73749;PMS7003;62058;48.406;-4.514;2023-05-29T00:47:31;0.00;0.00;0.00
73749;PMS7003;62058;48.406;-4.514;2023-05-29T00:49:56;0.00;0.00;0.00
73749;PMS7003;62058;48.406;-4.514;2023-05-29T00:52:23;0.00;0.00;0.00
73749;PMS7003;62058;48.406;-4.514;2023-05-29T00:54:49;0.00;0.00;0.00
73749;PMS7003;62058;48.406;-4.514;2023-05-29T00:57:15;0.00;0.00;0.00
73749;PMS7003;62058;48.406;-4.514;2023-05-29T00:59:41;0.00;0.00;0.00
73749;PMS7003;62058;48.406;-4.514;2023-05-29T01:02:08;0.00;0.00;0.00
73749;PMS7003;62058;48.406;-4.514;2023-05-29T01:04:34;0.00;0.00;0.00
73749;PMS7003;62058;48.406;-4.514;2023-05-29T01:07:01;0.00;0.00;0.00
73749;PMS7003;62058;48.406;-4.514;2023-05-29T01:09:27;0.00;0.00;0.00
73749;PMS7003;62058;48.406;-4.514;2023-05-29T01:17:51;0.00;0.00;0.00
73749;PMS7003;62058;48.406;-4.514;2023-05-29T01:20:42;0.00;0.00;0.00
73749;PMS7003;62058;48.406;-4.514;2023-05-29T01:28:48;0.00;0.00;0.00
73749;PMS7003;62058;48.406;-4.514;2023-05-29T01:31:17;0.00;0.00;0.00
73749;PMS7003;62058;48.406;-4.514;2023-05-29T01:33:51;0.00;0.00;0.00
73749;PMS7003;62058;48.406;-4.514;2023-05-29T01:36:18;0.00;0.00;0.00
73749;PMS7003;62058;48.406;-4.514;2023-05-29T01:38:43;0.00;0.00;0.00
73749;PMS7003;62058;48.406;-4.514;2023-05-29T01:41:08;0.00;0.00;0.00
73749;PMS7003;62058;48.406;-4.514;2023-05-29T01:43:34;0.00;0.00;0.00
73749;PMS7003;62058;48.406;-4.514;2023-05-29T01:46:00;0.00;0.00;0.00
73749;PMS7003;62058;48.406;-4.514;2023-05-29T01:48:26;0.00;0.00;0.00
73749;PMS7003;62058;48.406;-4.514;2023-05-29T01:50:52;0.00;0.00;0.00
73749;PMS7003;62058;48.406;-4.514;2023-05-29T01:53:19;0.00;0.00;0.00
73749;PMS7003;62058;48.406;-4.514;2023-05-29T01:55:45;0.00;0.00;0.00
73749;PMS7003;62058;48.406;-4.514;2023-05-29T01:58:11;0.00;0.00;0.00
73749;PMS7003;62058;48.406;-4.514;2023-05-29T02:00:38;0.00;0.00;0.00
73749;PMS7003;62058;48.406;-4.514;2023-05-29T02:03:05;0.00;0.00;0.00
73749;PMS7003;62058;48.406;-4.514;2023-05-29T02:05:30;0.00;0.00;0.00
73749;PMS7003;62058;48.406;-4.514;2023-05-29T02:07:55;0.00;0.00;0.00
73749;PMS7003;62058;48.406;-4.514;2023-05-29T02:10:21;0.00;0.00;0.00
73749;PMS7003;62058;48.406;-4.514;2023-05-29T02:12:46;0.00;0.00;0.00
73749;PMS7003;62058;48.406;-4.514;2023-05-29T02:15:12;0.00;0.00;0.00
73749;PMS7003;62058;48.406;-4.514;2023-05-29T02:17:37;0.00;0.00;0.00
73749;PMS7003;62058;48.406;-4.514;2023-05-29T02:20:02;0.00;0.00;0.00
73749;PMS7003;62058;48.406;-4.514;2023-05-29T02:22:29;0.00;0.00;0.00
73749;PMS7003;62058;48.406;-4.514;2023-05-29T02:24:55;0.00;0.00;0.00
73749;PMS7003;62058;48.406;-4.514;2023-05-29T02:27:20;0.00;0.00;0.00
73749;PMS7003;62058;48.406;-4.514;2023-05-29T02:29:45;0.00;0.00;0.00
73749;PMS7003;62058;48.406;-4.514;2023-05-29T02:32:11;0.00;0.00;0.00
73749;PMS7003;62058;48.406;-4.514;2023-05-29T02:34:36;0.00;0.00;0.00
73749;PMS7003;62058;48.406;-4.514;2023-05-29T02:37:01;0.00;0.00;0.00
73749;PMS7003;62058;48.406;-4.514;2023-05-29T02:39:27;0.00;0.00;0.00
73749;PMS7003;62058;48.406;-4.514;2023-05-29T02:41:53;0.00;0.00;0.00
73749;PMS7003;62058;48.406;-4.514;2023-05-29T02:44:19;0.00;0.00;0.00
73749;PMS7003;62058;48.406;-4.514;2023-05-29T02:46:45;0.00;0.00;0.00
73749;PMS7003;62058;48.406;-4.514;2023-05-29T02:49:10;0.00;0.00;0.00
73749;PMS7003;62058;48.406;-4.514;2023-05-29T02:51:36;0.00;0.00;0.00
73749;PMS7003;62058;48.406;-4.514;2023-05-29T02:54:02;0.00;0.00;0.00
73749;PMS7003;62058;48.406;-4.514;2023-05-29T02:56:27;0.00;0.00;0.00
73749;PMS7003;62058;48.406;-4.514;2023-05-29T02:58:53;0.00;0.00;0.00
73749;PMS7003;62058;48.406;-4.514;2023-05-29T03:01:18;0.00;0.00;0.00
73749;PMS7003;62058;48.406;-4.514;2023-05-29T03:03:44;0.00;0.00;0.00
73749;PMS7003;62058;48.406;-4.514;2023-05-29T03:06:09;0.00;0.00;0.00
73749;PMS7003;62058;48.406;-4.514;2023-05-29T03:08:35;0.00;0.00;0.00
73749;PMS7003;62058;48.406;-4.514;2023-05-29T03:11:10;0.00;0.00;0.00
73749;PMS7003;62058;48.406;-4.514;2023-05-29T03:13:39;0.00;0.00;0.00
73749;PMS7003;62058;48.406;-4.514;2023-05-29T03:16:05;0.00;0.00;0.00
73749;PMS7003;62058;48.406;-4.514;2023-05-29T03:18:30;0.00;0.00;0.00
73749;PMS7003;62058;48.406;-4.514;2023-05-29T03:20:56;0.00;0.00;0.00
73749;PMS7003;62058;48.406;-4.514;2023-05-29T03:23:21;0.00;0.00;0.00
73749;PMS7003;62058;48.406;-4.514;2023-05-29T03:25:47;0.00;0.00;0.00
73749;PMS7003;62058;48.406;-4.514;2023-05-29T03:28:12;0.00;0.00;0.00
73749;PMS7003;62058;48.406;-4.514;2023-05-29T03:30:38;0.00;0.00;0.00
73749;PMS7003;62058;48.406;-4.514;2023-05-29T03:33:03;0.00;0.00;0.00
73749;PMS7003;62058;48.406;-4.514;2023-05-29T03:35:31;0.00;0.00;0.00
73749;PMS7003;62058;48.406;-4.514;2023-05-29T03:37:57;0.00;0.00;0.00
73749;PMS7003;62058;48.406;-4.514;2023-05-29T03:40:22;0.00;0.00;0.00
73749;PMS7003;62058;48.406;-4.514;2023-05-29T03:42:48;0.00;0.00;0.00
73749;PMS7003;62058;48.406;-4.514;2023-05-29T03:45:13;0.00;0.00;0.00
73749;PMS7003;62058;48.406;-4.514;2023-05-29T03:47:39;0.00;0.00;0.00
73749;PMS7003;62058;48.406;-4.514;2023-05-29T03:50:04;0.00;0.00;0.00
73749;PMS7003;62058;48.406;-4.514;2023-05-29T03:52:30;0.00;0.00;0.00
73749;PMS7003;62058;48.406;-4.514;2023-05-29T03:54:56;0.00;0.00;0.00
73749;PMS7003;62058;48.406;-4.514;2023-05-29T03:57:21;0.00;0.00;0.00
73749;PMS7003;62058;48.406;-4.514;2023-05-29T03:59:46;0.00;0.00;0.00
73749;PMS7003;62058;48.406;-4.514;2023-05-29T04:02:12;0.00;0.00;0.00
73749;PMS7003;62058;48.406;-4.514;2023-05-29T04:04:37;0.00;0.00;0.00
73749;PMS7003;62058;48.406;-4.514;2023-05-29T04:07:04;0.00;0.00;0.00
73749;PMS7003;62058;48.406;-4.514;2023-05-29T04:09:30;0.00;0.00;0.00
73749;PMS7003;62058;48.406;-4.514;2023-05-29T04:11:55;0.00;0.00;0.00
73749;PMS7003;62058;48.406;-4.514;2023-05-29T04:14:21;0.00;0.00;0.00
73749;PMS7003;62058;48.406;-4.514;2023-05-29T04:16:46;0.00;0.00;0.00
73749;PMS7003;62058;48.406;-4.514;2023-05-29T04:19:11;0.00;0.00;0.00
73749;PMS7003;62058;48.406;-4.514;2023-05-29T04:21:37;0.00;0.00;0.00
73749;PMS7003;62058;48.406;-4.514;2023-05-29T04:24:02;0.00;0.00;0.00
73749;PMS7003;62058;48.406;-4.514;2023-05-29T04:26:28;0.00;0.00;0.00
73749;PMS7003;62058;48.406;-4.514;2023-05-29T04:28:53;0.00;0.00;0.00
73749;PMS7003;62058;48.406;-4.514;2023-05-29T04:31:22;0.00;0.00;0.00
73749;PMS7003;62058;48.406;-4.514;2023-05-29T04:33:50;0.00;0.00;0.00
73749;PMS7003;62058;48.406;-4.514;2023-05-29T04:36:19;0.00;0.00;0.00
73749;PMS7003;62058;48.406;-4.514;2023-05-29T04:38:48;0.00;0.00;0.00
73749;PMS7003;62058;48.406;-4.514;2023-05-29T04:41:16;0.00;0.00;0.00
73749;PMS7003;62058;48.406;-4.514;2023-05-29T04:43:41;0.00;0.00;0.00
73749;PMS7003;62058;48.406;-4.514;2023-05-29T04:46:07;0.00;0.00;0.00
73749;PMS7003;62058;48.406;-4.514;2023-05-29T04:48:37;0.00;0.00;0.00
73749;PMS7003;62058;48.406;-4.514;2023-05-29T04:51:05;0.00;0.00;0.00
73749;PMS7003;62058;48.406;-4.514;2023-05-29T04:53:31;0.00;0.00;0.00
73749;PMS7003;62058;48.406;-4.514;2023-05-29T04:55:56;0.00;0.00;0.00
73749;PMS7003;62058;48.406;-4.514;2023-05-29T04:58:22;0.00;0.00;0.00
73749;PMS7003;62058;48.406;-4.514;2023-05-29T05:00:49;0.00;0.00;0.00
73749;PMS7003;62058;48.406;-4.514;2023-05-29T05:03:14;0.00;0.00;0.00
73749;PMS7003;62058;48.406;-4.514;2023-05-29T05:05:41;0.00;0.00;0.00
73749;PMS7003;62058;48.406;-4.514;2023-05-29T05:08:08;0.00;0.00;0.00
73749;PMS7003;62058;48.406;-4.514;2023-05-29T05:10:34;0.00;0.00;0.00
73749;PMS7003;62058;48.406;-4.514;2023-05-29T05:13:00;0.00;0.00;0.00
73749;PMS7003;62058;48.406;-4.514;2023-05-29T05:15:27;0.00;0.00;0.00
73749;PMS7003;62058;48.406;-4.514;2023-05-29T05:17:53;0.00;0.00;0.00
73749;PMS7003;62058;48.406;-4.514;2023-05-29T05:20:18;0.00;0.00;0.00
73749;PMS7003;62058;48.406;-4.514;2023-05-29T05:22:44;0.00;0.00;0.00
73749;PMS7003;62058;48.406;-4.514;2023-05-29T05:25:10;0.00;0.00;0.00
73749;PMS7003;62058;48.406;-4.514;2023-05-29T05:27:36;0.00;0.00;0.00
73749;PMS7003;62058;48.406;-4.514;2023-05-29T05:30:03;0.00;0.00;0.00
73749;PMS7003;62058;48.406;-4.514;2023-05-29T05:32:28;0.00;0.00;0.00
73749;PMS7003;62058;48.406;-4.514;2023-05-29T05:34:54;0.00;0.00;0.00
73749;PMS7003;62058;48.406;-4.514;2023-05-29T05:37:20;0.00;0.00;0.00
73749;PMS7003;62058;48.406;-4.514;2023-05-29T05:39:48;0.00;0.00;0.00
73749;PMS7003;62058;48.406;-4.514;2023-05-29T05:42:14;0.00;0.00;0.00
73749;PMS7003;62058;48.406;-4.514;2023-05-29T05:44:39;0.00;0.00;0.00
73749;PMS7003;62058;48.406;-4.514;2023-05-29T05:47:05;0.00;0.00;0.00
73749;PMS7003;62058;48.406;-4.514;2023-05-29T05:49:30;0.00;0.00;0.00
73749;PMS7003;62058;48.406;-4.514;2023-05-29T05:51:56;0.00;0.00;0.00
73749;PMS7003;62058;48.406;-4.514;2023-05-29T05:54:21;0.00;0.00;0.00
73749;PMS7003;62058;48.406;-4.514;2023-05-29T05:56:46;0.00;0.00;0.00
73749;PMS7003;62058;48.406;-4.514;2023-05-29T05:59:12;0.00;0.00;0.00
73749;PMS7003;62058;48.406;-4.514;2023-05-29T06:01:37;0.00;0.00;0.00
73749;PMS7003;62058;48.406;-4.514;2023-05-29T06:04:03;0.00;0.00;0.00
73749;PMS7003;62058;48.406;-4.514;2023-05-29T06:06:29;0.00;0.00;0.00
73749;PMS7003;62058;48.406;-4.514;2023-05-29T06:08:56;0.00;0.00;0.00
73749;PMS7003;62058;48.406;-4.514;2023-05-29T06:11:23;0.00;0.00;0.00
73749;PMS7003;62058;48.406;-4.514;2023-05-29T06:13:48;0.00;0.00;0.00
73749;PMS7003;62058;48.406;-4.514;2023-05-29T06:16:14;0.00;0.00;0.00
73749;PMS7003;62058;48.406;-4.514;2023-05-29T06:18:39;0.00;0.00;0.00
73749;PMS7003;62058;48.406;-4.514;2023-05-29T06:21:04;0.00;0.00;0.00
73749;PMS7003;62058;48.406;-4.514;2023-05-29T06:23:32;0.00;0.00;0.00
73749;PMS7003;62058;48.406;-4.514;2023-05-29T06:25:58;0.00;0.00;0.00
73749;PMS7003;62058;48.406;-4.514;2023-05-29T06:28:24;0.00;0.00;0.00
73749;PMS7003;62058;48.406;-4.514;2023-05-29T06:30:49;0.00;0.00;0.00
73749;PMS7003;62058;48.406;-4.514;2023-05-29T06:33:15;0.00;0.00;0.00
73749;PMS7003;62058;48.406;-4.514;2023-05-29T06:35:41;0.00;0.00;0.00
73749;PMS7003;62058;48.406;-4.514;2023-05-29T06:38:06;0.00;0.00;0.00
73749;PMS7003;62058;48.406;-4.514;2023-05-29T06:40:32;0.00;0.00;0.00
73749;PMS7003;62058;48.406;-4.514;2023-05-29T06:42:57;0.00;0.00;0.00
73749;PMS7003;62058;48.406;-4.514;2023-05-29T06:45:22;0.00;0.00;0.00
73749;PMS7003;62058;48.406;-4.514;2023-05-29T06:47:48;0.00;0.00;0.00
73749;PMS7003;62058;48.406;-4.514;2023-05-29T06:50:13;0.00;0.00;0.00
73749;PMS7003;62058;48.406;-4.514;2023-05-29T06:52:39;0.00;0.00;0.00
73749;PMS7003;62058;48.406;-4.514;2023-05-29T06:55:05;0.00;0.00;0.00
73749;PMS7003;62058;48.406;-4.514;2023-05-29T06:57:31;0.00;0.00;0.00
73749;PMS7003;62058;48.406;-4.514;2023-05-29T06:59:56;0.00;0.00;0.00
73749;PMS7003;62058;48.406;-4.514;2023-05-29T07:02:22;0.00;0.00;0.00
73749;PMS7003;62058;48.406;-4.514;2023-05-29T07:04:48;0.00;0.00;0.00
73749;PMS7003;62058;48.406;-4.514;2023-05-29T07:07:13;0.00;0.00;0.00
73749;PMS7003;62058;48.406;-4.514;2023-05-29T07:09:39;0.00;0.00;0.00
73749;PMS7003;62058;48.406;-4.514;2023-05-29T07:12:04;0.00;0.00;0.00
73749;PMS7003;62058;48.406;-4.514;2023-05-29T07:14:30;0.00;0.00;0.00
73749;PMS7003;62058;48.406;-4.514;2023-05-29T07:16:56;0.00;0.00;0.00
73749;PMS7003;62058;48.406;-4.514;2023-05-29T07:19:21;0.00;0.00;0.00
73749;PMS7003;62058;48.406;-4.514;2023-05-29T07:21:47;0.00;0.00;0.00
73749;PMS7003;62058;48.406;-4.514;2023-05-29T07:24:12;0.00;0.00;0.00
73749;PMS7003;62058;48.406;-4.514;2023-05-29T07:26:38;0.00;0.00;0.00
73749;PMS7003;62058;48.406;-4.514;2023-05-29T07:29:03;0.00;0.00;0.00
73749;PMS7003;62058;48.406;-4.514;2023-05-29T07:31:29;0.00;0.00;0.00
73749;PMS7003;62058;48.406;-4.514;2023-05-29T07:33:54;0.00;0.00;0.00
73749;PMS7003;62058;48.406;-4.514;2023-05-29T07:36:20;0.00;0.00;0.00
73749;PMS7003;62058;48.406;-4.514;2023-05-29T07:38:46;0.00;0.00;0.00
73749;PMS7003;62058;48.406;-4.514;2023-05-29T07:41:11;0.00;0.00;0.00
73749;PMS7003;62058;48.406;-4.514;2023-05-29T07:43:36;0.00;0.00;0.00
73749;PMS7003;62058;48.406;-4.514;2023-05-29T07:46:02;0.00;0.00;0.00
73749;PMS7003;62058;48.406;-4.514;2023-05-29T07:48:28;0.00;0.00;0.00
73749;PMS7003;62058;48.406;-4.514;2023-05-29T07:50:53;0.00;0.00;0.00
73749;PMS7003;62058;48.406;-4.514;2023-05-29T07:53:19;0.00;0.00;0.00
73749;PMS7003;62058;48.406;-4.514;2023-05-29T07:55:44;0.00;0.00;0.00
73749;PMS7003;62058;48.406;-4.514;2023-05-29T07:58:10;0.00;0.00;0.00
73749;PMS7003;62058;48.406;-4.514;2023-05-29T08:00:36;0.00;0.00;0.00
73749;PMS7003;62058;48.406;-4.514;2023-05-29T08:03:03;0.00;0.00;0.00
73749;PMS7003;62058;48.406;-4.514;2023-05-29T08:05:28;0.00;0.00;0.00
73749;PMS7003;62058;48.406;-4.514;2023-05-29T08:07:54;0.00;0.00;0.00
73749;PMS7003;62058;48.406;-4.514;2023-05-29T08:10:20;0.00;0.00;0.00
73749;PMS7003;62058;48.406;-4.514;2023-05-29T08:12:45;0.00;0.00;0.00
73749;PMS7003;62058;48.406;-4.514;2023-05-29T08:15:10;0.00;0.00;0.00
73749;PMS7003;62058;48.406;-4.514;2023-05-29T08:17:37;0.00;0.00;0.00
73749;PMS7003;62058;48.406;-4.514;2023-05-29T08:20:03;0.00;0.00;0.00
73749;PMS7003;62058;48.406;-4.514;2023-05-29T08:22:32;0.00;0.00;0.00
73749;PMS7003;62058;48.406;-4.514;2023-05-29T08:24:58;0.00;0.00;0.00
73749;PMS7003;62058;48.406;-4.514;2023-05-29T08:27:24;0.00;0.00;0.00
73749;PMS7003;62058;48.406;-4.514;2023-05-29T08:29:49;0.00;0.00;0.00
73749;PMS7003;62058;48.406;-4.514;2023-05-29T08:32:15;0.00;0.00;0.00
73749;PMS7003;62058;48.406;-4.514;2023-05-29T08:34:41;0.00;0.00;0.00
73749;PMS7003;62058;48.406;-4.514;2023-05-29T08:37:07;0.00;0.00;0.00
73749;PMS7003;62058;48.406;-4.514;2023-05-29T08:39:32;0.00;0.00;0.00
73749;PMS7003;62058;48.406;-4.514;2023-05-29T08:42:04;0.00;0.00;0.00
73749;PMS7003;62058;48.406;-4.514;2023-05-29T08:44:58;0.00;0.00;0.00
73749;PMS7003;62058;48.406;-4.514;2023-05-29T08:47:28;0.00;0.00;0.00
73749;PMS7003;62058;48.406;-4.514;2023-05-29T08:49:58;0.00;0.00;0.00
73749;PMS7003;62058;48.406;-4.514;2023-05-29T08:52:25;0.00;0.00;0.00
73749;PMS7003;62058;48.406;-4.514;2023-05-29T08:54:52;0.00;0.00;0.00
73749;PMS7003;62058;48.406;-4.514;2023-05-29T08:57:18;0.00;0.00;0.00
73749;PMS7003;62058;48.406;-4.514;2023-05-29T08:59:45;0.00;0.00;0.00
73749;PMS7003;62058;48.406;-4.514;2023-05-29T09:02:14;0.00;0.00;0.00
73749;PMS7003;62058;48.406;-4.514;2023-05-29T09:04:43;0.00;0.00;0.00
73749;PMS7003;62058;48.406;-4.514;2023-05-29T09:07:17;0.00;0.00;0.00
73749;PMS7003;62058;48.406;-4.514;2023-05-29T09:09:44;0.00;0.00;0.00
73749;PMS7003;62058;48.406;-4.514;2023-05-29T09:12:10;0.00;0.00;0.00
73749;PMS7003;62058;48.406;-4.514;2023-05-29T09:14:36;0.00;0.00;0.00
73749;PMS7003;62058;48.406;-4.514;2023-05-29T09:17:04;0.00;0.00;0.00
73749;PMS7003;62058;48.406;-4.514;2023-05-29T09:19:31;0.00;0.00;0.00
73749;PMS7003;62058;48.406;-4.514;2023-05-29T09:22:01;0.00;0.00;0.00
73749;PMS7003;62058;48.406;-4.514;2023-05-29T09:24:27;0.00;0.00;0.00
73749;PMS7003;62058;48.406;-4.514;2023-05-29T09:26:53;0.00;0.00;0.00
73749;PMS7003;62058;48.406;-4.514;2023-05-29T09:29:18;0.00;0.00;0.00
73749;PMS7003;62058;48.406;-4.514;2023-05-29T09:31:47;0.00;0.00;0.00
73749;PMS7003;62058;48.406;-4.514;2023-05-29T09:34:13;0.00;0.00;0.00
73749;PMS7003;62058;48.406;-4.514;2023-05-29T09:36:39;0.00;0.00;0.00
73749;PMS7003;62058;48.406;-4.514;2023-05-29T09:39:05;0.00;0.00;0.00
73749;PMS7003;62058;48.406;-4.514;2023-05-29T09:41:34;0.00;0.00;0.00
73749;PMS7003;62058;48.406;-4.514;2023-05-29T09:44:12;0.00;0.00;0.00
73749;PMS7003;62058;48.406;-4.514;2023-05-29T09:46:39;0.00;0.00;0.00
73749;PMS7003;62058;48.406;-4.514;2023-05-29T09:49:12;0.00;0.00;0.00
73749;PMS7003;62058;48.406;-4.514;2023-05-29T09:51:38;0.00;0.00;0.00
73749;PMS7003;62058;48.406;-4.514;2023-05-29T09:54:16;0.00;0.00;0.00
73749;PMS7003;62058;48.406;-4.514;2023-05-29T09:56:43;0.00;0.00;0.00
73749;PMS7003;62058;48.406;-4.514;2023-05-29T09:59:10;0.00;0.00;0.00
73749;PMS7003;62058;48.406;-4.514;2023-05-29T10:01:37;0.00;0.00;0.00
73749;PMS7003;62058;48.406;-4.514;2023-05-29T10:04:07;0.00;0.00;0.00
73749;PMS7003;62058;48.406;-4.514;2023-05-29T10:06:35;0.00;0.00;0.00
73749;PMS7003;62058;48.406;-4.514;2023-05-29T10:09:02;0.00;0.00;0.00
73749;PMS7003;62058;48.406;-4.514;2023-05-29T10:11:35;0.00;0.00;0.00
73749;PMS7003;62058;48.406;-4.514;2023-05-29T10:14:05;0.00;0.00;0.00
73749;PMS7003;62058;48.406;-4.514;2023-05-29T10:16:31;0.00;0.00;0.00
73749;PMS7003;62058;48.406;-4.514;2023-05-29T10:19:02;0.00;0.00;0.00
73749;PMS7003;62058;48.406;-4.514;2023-05-29T10:21:36;0.00;0.00;0.00
73749;PMS7003;62058;48.406;-4.514;2023-05-29T10:24:03;0.00;0.00;0.00
73749;PMS7003;62058;48.406;-4.514;2023-05-29T10:26:31;0.00;0.00;0.00
73749;PMS7003;62058;48.406;-4.514;2023-05-29T10:34:50;0.00;0.00;0.00
73749;PMS7003;62058;48.406;-4.514;2023-05-29T10:40:11;0.00;0.00;0.00
73749;PMS7003;62058;48.406;-4.514;2023-05-29T10:42:44;0.00;0.00;0.00
73749;PMS7003;62058;48.406;-4.514;2023-05-29T10:45:47;0.00;0.00;0.00
73749;PMS7003;62058;48.406;-4.514;2023-05-29T10:53:16;0.00;0.00;0.00
73749;PMS7003;62058;48.406;-4.514;2023-05-29T10:55:44;0.00;0.00;0.00
73749;PMS7003;62058;48.406;-4.514;2023-05-29T10:58:14;0.00;0.00;0.00
73749;PMS7003;62058;48.406;-4.514;2023-05-29T11:00:44;0.00;0.00;0.00
73749;PMS7003;62058;48.406;-4.514;2023-05-29T11:03:23;0.00;0.00;0.00
73749;PMS7003;62058;48.406;-4.514;2023-05-29T11:05:56;0.00;0.00;0.00
73749;PMS7003;62058;48.406;-4.514;2023-05-29T11:08:35;0.00;0.00;0.00
73749;PMS7003;62058;48.406;-4.514;2023-05-29T11:11:14;0.00;0.00;0.00
73749;PMS7003;62058;48.406;-4.514;2023-05-29T11:13:52;0.00;0.00;0.00
73749;PMS7003;62058;48.406;-4.514;2023-05-29T11:16:20;0.00;0.00;0.00
73749;PMS7003;62058;48.406;-4.514;2023-05-29T11:19:08;0.00;0.00;0.00
73749;PMS7003;62058;48.406;-4.514;2023-05-29T11:24:20;0.00;0.00;0.00
73749;PMS7003;62058;48.406;-4.514;2023-05-29T11:26:54;0.00;0.00;0.00
73749;PMS7003;62058;48.406;-4.514;2023-05-29T11:29:21;0.00;0.00;0.00
73749;PMS7003;62058;48.406;-4.514;2023-05-29T11:31:48;0.00;0.00;0.00
73749;PMS7003;62058;48.406;-4.514;2023-05-29T11:34:19;0.00;0.00;0.00
73749;PMS7003;62058;48.406;-4.514;2023-05-29T11:36:47;0.00;0.00;0.00
73749;PMS7003;62058;48.406;-4.514;2023-05-29T11:39:14;0.00;0.00;0.00
73749;PMS7003;62058;48.406;-4.514;2023-05-29T11:41:40;0.00;0.00;0.00
73749;PMS7003;62058;48.406;-4.514;2023-05-29T11:44:05;0.00;0.00;0.00
73749;PMS7003;62058;48.406;-4.514;2023-05-29T11:46:31;0.00;0.00;0.00
73749;PMS7003;62058;48.406;-4.514;2023-05-29T11:48:58;0.00;0.00;0.00
73749;PMS7003;62058;48.406;-4.514;2023-05-29T11:51:24;0.00;0.00;0.00
73749;PMS7003;62058;48.406;-4.514;2023-05-29T11:53:50;0.00;0.00;0.00
73749;PMS7003;62058;48.406;-4.514;2023-05-29T11:56:18;0.00;0.00;0.00
73749;PMS7003;62058;48.406;-4.514;2023-05-29T11:58:43;0.00;0.00;0.00
73749;PMS7003;62058;48.406;-4.514;2023-05-29T12:01:10;0.00;0.00;0.00
73749;PMS7003;62058;48.406;-4.514;2023-05-29T12:03:41;0.00;0.00;0.00
73749;PMS7003;62058;48.406;-4.514;2023-05-29T12:06:08;0.00;0.00;0.00
73749;PMS7003;62058;48.406;-4.514;2023-05-29T12:08:35;0.00;0.00;0.00
73749;PMS7003;62058;48.406;-4.514;2023-05-29T12:11:01;0.00;0.00;0.00
73749;PMS7003;62058;48.406;-4.514;2023-05-29T12:13:26;0.00;0.00;0.00
73749;PMS7003;62058;48.406;-4.514;2023-05-29T12:15:54;0.00;0.00;0.00
73749;PMS7003;62058;48.406;-4.514;2023-05-29T12:18:25;0.00;0.00;0.00
73749;PMS7003;62058;48.406;-4.514;2023-05-29T12:20:50;0.00;0.00;0.00
73749;PMS7003;62058;48.406;-4.514;2023-05-29T12:23:21;0.00;0.00;0.00
73749;PMS7003;62058;48.406;-4.514;2023-05-29T12:25:47;0.00;0.00;0.00
73749;PMS7003;62058;48.406;-4.514;2023-05-29T12:28:16;0.00;0.00;0.00
73749;PMS7003;62058;48.406;-4.514;2023-05-29T12:30:44;0.00;0.00;0.00
73749;PMS7003;62058;48.406;-4.514;2023-05-29T12:33:32;0.00;0.00;0.00
73749;PMS7003;62058;48.406;-4.514;2023-05-29T12:36:01;0.00;0.00;0.00
73749;PMS7003;62058;48.406;-4.514;2023-05-29T12:38:29;0.00;0.00;0.00
73749;PMS7003;62058;48.406;-4.514;2023-05-29T12:40:56;0.00;0.00;0.00
73749;PMS7003;62058;48.406;-4.514;2023-05-29T12:43:22;0.00;0.00;0.00
73749;PMS7003;62058;48.406;-4.514;2023-05-29T12:45:53;0.00;0.00;0.00
73749;PMS7003;62058;48.406;-4.514;2023-05-29T12:48:25;0.00;0.00;0.00
73749;PMS7003;62058;48.406;-4.514;2023-05-29T12:50:52;0.00;0.00;0.00
73749;PMS7003;62058;48.406;-4.514;2023-05-29T12:53:17;0.00;0.00;0.00
73749;PMS7003;62058;48.406;-4.514;2023-05-29T12:55:43;0.00;0.00;0.00
73749;PMS7003;62058;48.406;-4.514;2023-05-29T12:58:10;0.00;0.00;0.00
73749;PMS7003;62058;48.406;-4.514;2023-05-29T13:00:37;0.00;0.00;0.00
73749;PMS7003;62058;48.406;-4.514;2023-05-29T13:03:04;0.00;0.00;0.00
73749;PMS7003;62058;48.406;-4.514;2023-05-29T13:05:31;0.00;0.00;0.00
73749;PMS7003;62058;48.406;-4.514;2023-05-29T13:07:57;0.00;0.00;0.00
73749;PMS7003;62058;48.406;-4.514;2023-05-29T13:10:23;0.00;0.00;0.00
73749;PMS7003;62058;48.406;-4.514;2023-05-29T13:12:50;0.00;0.00;0.00
73749;PMS7003;62058;48.406;-4.514;2023-05-29T13:15:21;0.00;0.00;0.00
73749;PMS7003;62058;48.406;-4.514;2023-05-29T13:17:47;0.00;0.00;0.00
73749;PMS7003;62058;48.406;-4.514;2023-05-29T13:20:13;0.00;0.00;0.00
73749;PMS7003;62058;48.406;-4.514;2023-05-29T13:22:39;0.00;0.00;0.00
73749;PMS7003;62058;48.406;-4.514;2023-05-29T13:25:06;0.00;0.00;0.00
73749;PMS7003;62058;48.406;-4.514;2023-05-29T13:27:34;0.00;0.00;0.00
73749;PMS7003;62058;48.406;-4.514;2023-05-29T13:30:01;0.00;0.00;0.00
73749;PMS7003;62058;48.406;-4.514;2023-05-29T13:32:27;0.00;0.00;0.00
73749;PMS7003;62058;48.406;-4.514;2023-05-29T13:34:53;0.00;0.00;0.00
73749;PMS7003;62058;48.406;-4.514;2023-05-29T13:37:18;18.75;18.75;18.75
73749;PMS7003;62058;48.406;-4.514;2023-05-29T13:39:44;0.75;0.75;0.75
73749;PMS7003;62058;48.406;-4.514;2023-05-29T13:42:09;63.50;56.25;52.00
73749;PMS7003;62058;48.406;-4.514;2023-05-29T13:44:35;121.25;121.25;121.25
73749;PMS7003;62058;48.406;-4.514;2023-05-29T13:47:01;244.33;244.33;243.67
73749;PMS7003;62058;48.406;-4.514;2023-05-29T13:49:26;239.75;239.25;238.75
73749;PMS7003;62058;48.406;-4.514;2023-05-29T13:51:52;246.25;246.25;245.75
73749;PMS7003;62058;48.406;-4.514;2023-05-29T13:54:17;220.00;219.25;218.50
73749;PMS7003;62058;48.406;-4.514;2023-05-29T13:56:43;232.50;230.75;229.50
73749;PMS7003;62058;48.406;-4.514;2023-05-29T13:59:08;232.75;231.00;230.25
73749;PMS7003;62058;48.406;-4.514;2023-05-29T14:01:34;227.25;225.00;224.75
73749;PMS7003;62058;48.406;-4.514;2023-05-29T14:03:59;234.25;233.00;232.75
73749;PMS7003;62058;48.406;-4.514;2023-05-29T14:06:25;234.40;234.40;233.80
73749;PMS7003;62058;48.406;-4.514;2023-05-29T14:08:51;232.75;232.75;232.00
73749;PMS7003;62058;48.406;-4.514;2023-05-29T14:11:17;207.40;207.40;206.20
73749;PMS7003;62058;48.406;-4.514;2023-05-29T14:13:43;235.80;235.20;234.80
73749;PMS7003;62058;48.406;-4.514;2023-05-29T14:16:08;226.00;225.33;224.00
73749;PMS7003;62058;48.406;-4.514;2023-05-29T14:18:34;215.00;215.00;215.00
73749;PMS7003;62058;48.406;-4.514;2023-05-29T14:20:59;211.60;210.20;209.60
73749;PMS7003;62058;48.406;-4.514;2023-05-29T14:23:25;194.20;194.20;193.80
73749;PMS7003;62058;48.406;-4.514;2023-05-29T14:25:50;165.20;165.20;163.00
73749;PMS7003;62058;48.406;-4.514;2023-05-29T14:28:16;165.17;164.83;164.33
73749;PMS7003;62058;48.406;-4.514;2023-05-29T14:30:42;148.80;148.80;148.60
73749;PMS7003;62058;48.406;-4.514;2023-05-29T14:33:08;130.00;129.50;128.25